createdAt,value
2018-05-06T00:00:03.321Z,8.60
2018-05-06T00:00:37.071Z,8.50
2018-05-06T00:01:10.555Z,8.50
2018-05-06T00:01:44.313Z,8.50
2018-05-06T00:02:17.778Z,8.50
2018-05-06T00:02:51.520Z,8.50
2018-05-06T00:03:25.279Z,8.50
2018-05-06T00:03:58.751Z,8.50
2018-05-06T00:04:32.495Z,8.50
2018-05-06T00:05:06.506Z,8.50
2018-05-06T00:05:41.140Z,8.50
2018-05-06T00:06:14.631Z,8.40
2018-05-06T00:06:48.542Z,8.50
2018-05-06T00:07:22.646Z,8.40
2018-05-06T00:07:56.387Z,8.40
2018-05-06T00:08:29.895Z,8.40
2018-05-06T00:09:03.550Z,8.40
2018-05-06T00:09:38.056Z,8.40
2018-05-06T00:10:12.602Z,8.40
2018-05-06T00:10:46.336Z,8.40
2018-05-06T00:11:20.091Z,8.40
2018-05-06T00:11:53.845Z,8.40
2018-05-06T00:12:27.574Z,8.40
2018-05-06T00:13:01.065Z,8.40
2018-05-06T00:13:34.578Z,8.40
2018-05-06T00:14:08.824Z,8.40
2018-05-06T00:14:42.288Z,8.40
2018-05-06T00:15:16.898Z,8.40
2018-05-06T00:15:50.480Z,8.30
2018-05-06T00:16:24.173Z,8.40
2018-05-06T00:16:57.642Z,8.40
2018-05-06T00:17:31.384Z,8.40
2018-05-06T00:18:04.867Z,8.30
2018-05-06T00:18:38.136Z,8.30
2018-05-06T00:19:12.440Z,8.30
2018-05-06T00:19:47.007Z,8.30
2018-05-06T00:20:21.008Z,8.30
2018-05-06T00:20:56.199Z,8.30
2018-05-06T00:21:29.655Z,8.30
2018-05-06T00:22:04.150Z,8.30
2018-05-06T00:22:37.894Z,8.30
2018-05-06T00:23:11.646Z,8.30
2018-05-06T00:23:45.160Z,8.30
2018-05-06T00:24:18.616Z,8.20
2018-05-06T00:24:53.103Z,8.30
2018-05-06T00:25:26.583Z,8.30
2018-05-06T00:26:00.430Z,8.30
2018-05-06T00:26:34.152Z,8.30
2018-05-06T00:27:08.374Z,8.30
2018-05-06T00:27:41.859Z,8.20
2018-05-06T00:28:15.594Z,8.20
2018-05-06T00:28:49.106Z,8.30
2018-05-06T00:29:23.646Z,8.30
2018-05-06T00:29:57.386Z,8.30
2018-05-06T00:30:31.150Z,8.30
2018-05-06T00:31:04.312Z,8.20
2018-05-06T00:31:38.056Z,8.20
2018-05-06T00:32:11.811Z,8.30
2018-05-06T00:32:44.967Z,8.20
2018-05-06T00:33:18.446Z,8.20
2018-05-06T00:33:52.773Z,8.20
2018-05-06T00:34:26.242Z,8.20
2018-05-06T00:34:59.720Z,8.20
2018-05-06T00:35:33.963Z,8.20
2018-05-06T00:36:07.714Z,8.20
2018-05-06T00:36:41.466Z,8.20
2018-05-06T00:37:15.207Z,8.20
2018-05-06T00:37:49.726Z,8.20
2018-05-06T00:38:23.470Z,8.20
2018-05-06T00:38:57.240Z,8.20
2018-05-06T00:39:30.992Z,8.20
2018-05-06T00:40:04.055Z,8.20
2018-05-06T00:40:38.274Z,8.20
2018-05-06T00:41:11.489Z,8.20
2018-05-06T00:41:44.751Z,8.20
2018-05-06T00:42:17.981Z,8.20
2018-05-06T00:42:52.031Z,8.20
2018-05-06T00:43:26.523Z,8.20
2018-05-06T00:44:01.068Z,8.20
2018-05-06T00:44:34.570Z,8.10
2018-05-06T00:45:08.025Z,8.20
2018-05-06T00:45:41.787Z,8.20
2018-05-06T00:46:16.305Z,8.10
2018-05-06T00:46:50.812Z,8.10
2018-05-06T00:47:24.540Z,8.10
2018-05-06T00:47:58.280Z,8.10
2018-05-06T00:48:32.009Z,8.10
2018-05-06T00:49:05.799Z,8.10
2018-05-06T00:49:40.290Z,8.10
2018-05-06T00:50:14.792Z,8.10
2018-05-06T00:50:48.536Z,8.10
2018-05-06T00:51:22.273Z,8.10
2018-05-06T00:51:56.029Z,8.10
2018-05-06T00:52:30.263Z,8.10
2018-05-06T00:53:03.660Z,8.10
2018-05-06T00:53:38.153Z,8.10
2018-05-06T00:54:23.146Z,8.00
2018-05-06T00:54:56.883Z,8.10
2018-05-06T00:55:30.623Z,8.10
2018-05-06T00:56:04.389Z,8.00
2018-05-06T00:56:38.106Z,8.00
2018-05-06T00:57:11.851Z,8.00
2018-05-06T00:57:45.584Z,8.00
2018-05-06T00:58:19.048Z,8.00
2018-05-06T00:58:53.552Z,8.00
2018-05-06T00:59:28.084Z,8.00
2018-05-06T01:00:01.832Z,8.00
2018-05-06T01:00:35.636Z,8.00
2018-05-06T01:01:09.851Z,8.00
2018-05-06T01:01:44.350Z,8.00
2018-05-06T01:02:18.089Z,7.90
2018-05-06T01:02:51.828Z,7.90
2018-05-06T01:03:25.572Z,7.90
2018-05-06T01:03:59.325Z,7.90
2018-05-06T01:04:33.856Z,7.90
2018-05-06T01:05:07.579Z,7.90
2018-05-06T01:05:41.317Z,7.90
2018-05-06T01:06:15.842Z,7.90
2018-05-06T01:06:49.578Z,7.90
2018-05-06T01:07:23.350Z,7.90
2018-05-06T01:07:57.084Z,7.90
2018-05-06T01:08:30.558Z,7.90
2018-05-06T01:09:03.645Z,7.90
2018-05-06T01:09:37.372Z,7.90
2018-05-06T01:10:11.095Z,7.90
2018-05-06T01:10:44.626Z,7.90
2018-05-06T01:11:19.136Z,7.80
2018-05-06T01:11:53.672Z,7.80
2018-05-06T01:12:27.425Z,7.80
2018-05-06T01:13:01.167Z,7.80
2018-05-06T01:13:34.931Z,7.80
2018-05-06T01:14:09.466Z,7.80
2018-05-06T01:14:42.944Z,7.80
2018-05-06T01:15:16.702Z,7.80
2018-05-06T01:15:50.856Z,7.80
2018-05-06T01:16:24.600Z,7.80
2018-05-06T01:16:58.112Z,7.80
2018-05-06T01:17:31.873Z,7.80
2018-05-06T01:18:06.377Z,7.80
2018-05-06T01:18:40.886Z,7.80
2018-05-06T01:19:15.402Z,7.80
2018-05-06T01:19:50.828Z,7.80
2018-05-06T01:20:25.002Z,7.80
2018-05-06T01:20:59.253Z,7.80
2018-05-06T01:21:32.982Z,7.80
2018-05-06T01:22:06.758Z,7.80
2018-05-06T01:22:40.507Z,7.80
2018-05-06T01:23:15.060Z,7.80
2018-05-06T01:23:48.826Z,7.80
2018-05-06T01:24:23.356Z,7.80
2018-05-06T01:24:57.107Z,7.70
2018-05-06T01:25:31.614Z,7.80
2018-05-06T01:26:05.333Z,7.80
2018-05-06T01:26:39.101Z,7.80
2018-05-06T01:27:13.635Z,7.80
2018-05-06T01:27:47.173Z,7.70
2018-05-06T01:28:21.186Z,7.70
2018-05-06T01:28:54.925Z,7.70
2018-05-06T01:29:28.673Z,7.70
2018-05-06T01:30:03.179Z,7.70
2018-05-06T01:30:36.957Z,7.70
2018-05-06T01:31:10.461Z,7.70
2018-05-06T01:31:44.806Z,7.70
2018-05-06T01:32:18.404Z,7.70
2018-05-06T01:32:52.155Z,7.70
2018-05-06T01:33:26.704Z,7.70
2018-05-06T01:34:00.446Z,7.70
2018-05-06T01:34:34.947Z,7.70
2018-05-06T01:35:08.708Z,7.70
2018-05-06T01:35:42.473Z,7.70
2018-05-06T01:36:16.240Z,7.70
2018-05-06T01:36:50.733Z,7.70
2018-05-06T01:37:24.506Z,7.70
2018-05-06T01:37:58.255Z,7.70
2018-05-06T01:38:32.006Z,7.70
2018-05-06T01:39:05.082Z,7.70
2018-05-06T01:39:38.835Z,7.70
2018-05-06T01:40:12.577Z,7.70
2018-05-06T01:40:47.093Z,7.70
2018-05-06T01:41:21.580Z,7.70
2018-05-06T01:41:55.315Z,7.70
2018-05-06T01:42:29.116Z,7.70
2018-05-06T01:43:02.886Z,7.70
2018-05-06T01:43:36.623Z,7.70
2018-05-06T01:44:10.533Z,7.60
2018-05-06T01:44:44.421Z,7.70
2018-05-06T01:45:18.169Z,7.70
2018-05-06T01:45:51.931Z,7.70
2018-05-06T01:46:26.441Z,7.70
2018-05-06T01:47:00.944Z,7.70
2018-05-06T01:47:35.498Z,7.70
2018-05-06T01:48:09.245Z,7.60
2018-05-06T01:48:43.833Z,7.60
2018-05-06T01:49:17.589Z,7.60
2018-05-06T01:49:51.345Z,7.60
2018-05-06T01:50:25.851Z,7.60
2018-05-06T01:51:00.358Z,7.60
2018-05-06T01:51:34.849Z,7.60
2018-05-06T01:52:09.076Z,7.60
2018-05-06T01:52:42.587Z,7.60
2018-05-06T01:53:16.357Z,7.60
2018-05-06T01:53:50.093Z,7.60
2018-05-06T01:54:23.809Z,7.60
2018-05-06T01:54:57.307Z,7.60
2018-05-06T01:55:30.833Z,7.60
2018-05-06T01:56:04.343Z,7.60
2018-05-06T01:56:38.091Z,7.60
2018-05-06T01:57:11.887Z,7.60
2018-05-06T01:57:45.669Z,7.60
2018-05-06T01:58:20.198Z,7.60
2018-05-06T01:58:54.017Z,7.60
2018-05-06T01:59:27.797Z,7.60
2018-05-06T02:00:01.545Z,7.60
2018-05-06T02:00:36.068Z,7.60
2018-05-06T02:01:10.595Z,7.60
2018-05-06T02:01:44.345Z,7.60
2018-05-06T02:02:18.113Z,7.60
2018-05-06T02:02:51.853Z,7.60
2018-05-06T02:03:26.398Z,7.50
2018-05-06T02:04:01.089Z,7.60
2018-05-06T02:04:34.553Z,7.60
2018-05-06T02:05:08.032Z,7.60
2018-05-06T02:05:42.057Z,7.60
2018-05-06T02:06:15.799Z,7.60
2018-05-06T02:06:49.544Z,7.60
2018-05-06T02:07:23.281Z,7.60
2018-05-06T02:07:57.149Z,7.60
2018-05-06T02:08:31.493Z,7.50
2018-05-06T02:09:05.365Z,7.50
2018-05-06T02:09:39.121Z,7.50
2018-05-06T02:10:12.877Z,7.50
2018-05-06T02:10:46.705Z,7.50
2018-05-06T02:11:20.472Z,7.50
2018-05-06T02:11:53.945Z,7.50
2018-05-06T02:12:27.697Z,7.50
2018-05-06T02:13:01.468Z,7.50
2018-05-06T02:13:35.205Z,7.50
2018-05-06T02:14:08.952Z,7.50
2018-05-06T02:14:42.711Z,7.50
2018-05-06T02:15:18.097Z,7.50
2018-05-06T02:15:51.867Z,7.40
2018-05-06T02:16:25.621Z,7.50
2018-05-06T02:17:00.161Z,7.40
2018-05-06T02:17:33.952Z,7.40
2018-05-06T02:18:07.475Z,7.40
2018-05-06T02:18:41.235Z,7.50
2018-05-06T02:19:14.747Z,7.40
2018-05-06T02:19:48.510Z,7.40
2018-05-06T02:20:22.324Z,7.40
2018-05-06T02:20:56.079Z,7.40
2018-05-06T02:21:29.588Z,7.50
2018-05-06T02:22:03.331Z,7.50
2018-05-06T02:22:37.881Z,7.40
2018-05-06T02:23:11.653Z,7.40
2018-05-06T02:23:45.422Z,7.40
2018-05-06T02:24:18.913Z,7.40
2018-05-06T02:24:53.478Z,7.40
2018-05-06T02:25:26.909Z,7.40
2018-05-06T02:26:00.051Z,7.40
2018-05-06T02:26:33.810Z,7.50
2018-05-06T02:27:07.555Z,7.50
2018-05-06T02:27:41.309Z,7.50
2018-05-06T02:28:15.070Z,7.50
2018-05-06T02:28:48.857Z,7.50
2018-05-06T02:29:23.361Z,7.50
2018-05-06T02:29:57.907Z,7.50
2018-05-06T02:30:31.757Z,7.50
2018-05-06T02:31:05.977Z,7.50
2018-05-06T02:31:39.732Z,7.50
2018-05-06T02:32:13.240Z,7.50
2018-05-06T02:32:47.770Z,7.50
2018-05-06T02:33:21.271Z,7.50
2018-05-06T02:33:55.029Z,7.50
2018-05-06T02:34:29.537Z,7.50
2018-05-06T02:35:03.743Z,7.50
2018-05-06T02:35:38.274Z,7.50
2018-05-06T02:36:12.043Z,7.40
2018-05-06T02:36:46.572Z,7.40
2018-05-06T02:37:20.352Z,7.40
2018-05-06T02:37:54.090Z,7.40
2018-05-06T02:38:27.842Z,7.40
2018-05-06T02:39:01.318Z,7.40
2018-05-06T02:39:35.060Z,7.40
2018-05-06T02:40:08.836Z,7.40
2018-05-06T02:40:43.360Z,7.40
2018-05-06T02:41:17.890Z,7.40
2018-05-06T02:41:51.663Z,7.40
2018-05-06T02:42:25.426Z,7.40
2018-05-06T02:42:59.166Z,7.40
2018-05-06T02:43:33.673Z,7.40
2018-05-06T02:44:07.414Z,7.30
2018-05-06T02:44:41.163Z,7.40
2018-05-06T02:45:14.920Z,7.30
2018-05-06T02:45:48.336Z,7.30
2018-05-06T02:46:22.118Z,7.30
2018-05-06T02:46:55.536Z,7.30
2018-05-06T02:47:29.310Z,7.30
2018-05-06T02:48:03.514Z,7.30
2018-05-06T02:48:38.034Z,7.30
2018-05-06T02:49:12.550Z,7.30
2018-05-06T02:49:46.314Z,7.30
2018-05-06T02:50:20.082Z,7.30
2018-05-06T02:50:53.832Z,7.30
2018-05-06T02:51:27.583Z,7.30
2018-05-06T02:52:01.364Z,7.30
2018-05-06T02:52:35.113Z,7.30
2018-05-06T02:53:08.878Z,7.30
2018-05-06T02:53:43.406Z,7.30
2018-05-06T02:54:17.162Z,7.30
2018-05-06T02:54:50.902Z,7.30
2018-05-06T02:55:24.674Z,7.30
2018-05-06T02:55:58.433Z,7.30
2018-05-06T02:56:32.664Z,7.30
2018-05-06T02:57:07.169Z,7.30
2018-05-06T02:57:41.678Z,7.30
2018-05-06T02:58:16.200Z,7.30
2018-05-06T02:58:49.942Z,7.30
2018-05-06T02:59:23.464Z,7.30
2018-05-06T02:59:57.768Z,7.30
2018-05-06T03:00:31.608Z,7.30
2018-05-06T03:01:05.362Z,7.30
2018-05-06T03:01:38.904Z,7.30
2018-05-06T03:02:12.642Z,7.30
2018-05-06T03:02:46.396Z,7.30
2018-05-06T03:03:20.150Z,7.30
2018-05-06T03:03:53.894Z,7.30
2018-05-06T03:04:27.640Z,7.30
2018-05-06T03:05:01.424Z,7.30
2018-05-06T03:05:34.832Z,7.30
2018-05-06T03:06:08.568Z,7.30
2018-05-06T03:06:41.976Z,7.30
2018-05-06T03:07:15.715Z,7.30
2018-05-06T03:07:49.456Z,7.30
2018-05-06T03:08:23.254Z,7.30
2018-05-06T03:08:57.011Z,7.30
2018-05-06T03:09:30.792Z,7.30
2018-05-06T03:10:04.726Z,7.30
2018-05-06T03:10:38.456Z,7.20
2018-05-06T03:11:12.230Z,7.30
2018-05-06T03:11:45.962Z,7.20
2018-05-06T03:12:19.714Z,7.20
2018-05-06T03:12:53.456Z,7.20
2018-05-06T03:13:27.964Z,7.20
2018-05-06T03:14:01.736Z,7.20
2018-05-06T03:14:35.480Z,7.20
2018-05-06T03:15:09.276Z,7.20
2018-05-06T03:15:43.030Z,7.20
2018-05-06T03:16:17.300Z,7.20
2018-05-06T03:16:51.161Z,7.20
2018-05-06T03:17:24.576Z,7.20
2018-05-06T03:17:58.316Z,7.20
2018-05-06T03:18:32.071Z,7.20
2018-05-06T03:19:05.824Z,7.20
2018-05-06T03:19:39.581Z,7.20
2018-05-06T03:20:13.371Z,7.20
2018-05-06T03:20:47.126Z,7.20
2018-05-06T03:21:20.864Z,7.20
2018-05-06T03:21:54.622Z,7.20
2018-05-06T03:22:28.398Z,7.20
2018-05-06T03:23:02.132Z,7.20
2018-05-06T03:23:36.636Z,7.20
2018-05-06T03:24:11.138Z,7.20
2018-05-06T03:24:44.868Z,7.20
2018-05-06T03:25:18.642Z,7.20
2018-05-06T03:25:53.234Z,7.20
2018-05-06T03:26:27.732Z,7.20
2018-05-06T03:27:01.478Z,7.20
2018-05-06T03:27:35.200Z,7.20
2018-05-06T03:28:08.940Z,7.20
2018-05-06T03:28:42.678Z,7.20
2018-05-06T03:29:16.401Z,7.20
2018-05-06T03:29:50.952Z,7.20
2018-05-06T03:30:25.670Z,7.20
2018-05-06T03:30:59.398Z,7.20
2018-05-06T03:31:33.130Z,7.20
2018-05-06T03:32:06.874Z,7.20
2018-05-06T03:32:40.616Z,7.20
2018-05-06T03:33:14.352Z,7.20
2018-05-06T03:33:48.078Z,7.20
2018-05-06T03:34:22.570Z,7.20
2018-05-06T03:34:56.290Z,7.20
2018-05-06T03:35:30.052Z,7.30
2018-05-06T03:36:03.784Z,7.30
2018-05-06T03:36:37.521Z,7.30
2018-05-06T03:37:11.292Z,7.30
2018-05-06T03:37:45.034Z,7.30
2018-05-06T03:38:19.554Z,7.30
2018-05-06T03:38:53.282Z,7.30
2018-05-06T03:39:27.028Z,7.30
2018-05-06T03:40:00.788Z,7.30
2018-05-06T03:40:34.549Z,7.30
2018-05-06T03:41:08.296Z,7.30
2018-05-06T03:41:42.806Z,7.30
2018-05-06T03:42:17.351Z,7.30
2018-05-06T03:42:51.068Z,7.30
2018-05-06T03:43:24.804Z,7.30
2018-05-06T03:43:57.970Z,7.30
2018-05-06T03:44:31.912Z,7.40
2018-05-06T03:45:05.657Z,7.40
2018-05-06T03:45:40.168Z,7.40
2018-05-06T03:46:14.689Z,7.40
2018-05-06T03:46:48.431Z,7.40
2018-05-06T03:47:22.232Z,7.40
2018-05-06T03:47:55.988Z,7.40
2018-05-06T03:48:29.744Z,7.40
2018-05-06T03:49:04.798Z,7.50
2018-05-06T03:49:38.558Z,7.50
2018-05-06T03:50:12.047Z,7.50
2018-05-06T03:50:46.551Z,7.50
2018-05-06T03:51:21.063Z,7.60
2018-05-06T03:51:55.569Z,7.60
2018-05-06T03:52:30.110Z,7.60
2018-05-06T03:53:03.882Z,7.60
2018-05-06T03:53:38.376Z,7.60
2018-05-06T03:54:12.892Z,7.70
2018-05-06T03:54:47.598Z,7.70
2018-05-06T03:55:21.063Z,7.70
2018-05-06T03:55:59.950Z,7.70
2018-05-06T03:56:54.540Z,7.80
2018-05-06T03:57:39.490Z,7.80
2018-05-06T03:58:24.356Z,7.80
2018-05-06T03:59:09.232Z,7.90
2018-05-06T03:59:54.788Z,8.00
2018-05-06T04:00:39.706Z,8.00
2018-05-06T04:01:12.996Z,8.20
2018-05-06T04:02:13.508Z,8.20
2018-05-06T04:02:47.294Z,8.40
2018-05-06T04:03:21.042Z,8.60
2018-05-06T04:03:55.555Z,8.90
2018-05-06T04:04:30.059Z,9.10
2018-05-06T04:05:03.893Z,9.30
2018-05-06T04:05:37.638Z,9.30
2018-05-06T04:06:12.149Z,9.60
2018-05-06T04:06:47.020Z,9.60
2018-05-06T04:07:20.720Z,9.80
2018-05-06T04:07:54.496Z,9.90
2018-05-06T04:08:27.972Z,10.10
2018-05-06T04:09:01.459Z,10.20
2018-05-06T04:09:34.938Z,10.40
2018-05-06T04:10:08.442Z,10.50
2018-05-06T04:10:41.917Z,10.70
2018-05-06T04:11:15.420Z,10.80
2018-05-06T04:11:49.729Z,11.00
2018-05-06T04:12:22.998Z,11.00
2018-05-06T04:12:56.484Z,11.20
2018-05-06T04:13:30.074Z,11.30
2018-05-06T04:14:04.334Z,11.50
2018-05-06T04:14:38.008Z,11.50
2018-05-06T04:15:11.521Z,11.70
2018-05-06T04:15:45.021Z,11.70
2018-05-06T04:16:18.554Z,11.90
2018-05-06T04:16:51.798Z,12.00
2018-05-06T04:17:26.040Z,12.10
2018-05-06T04:17:59.569Z,12.10
2018-05-06T04:18:33.058Z,12.20
2018-05-06T04:19:06.548Z,12.30
2018-05-06T04:19:40.029Z,12.40
2018-05-06T04:20:13.518Z,12.40
2018-05-06T04:20:47.006Z,12.50
2018-05-06T04:21:20.503Z,12.60
2018-05-06T04:21:54.168Z,12.60
2018-05-06T04:22:27.662Z,12.70
2018-05-06T04:23:01.162Z,12.80
2018-05-06T04:23:35.629Z,12.90
2018-05-06T04:24:09.085Z,12.80
2018-05-06T04:24:42.570Z,13.00
2018-05-06T04:25:16.055Z,13.00
2018-05-06T04:25:49.558Z,13.10
2018-05-06T04:26:23.032Z,13.20
2018-05-06T04:26:56.492Z,13.20
2018-05-06T04:27:30.748Z,13.40
2018-05-06T04:28:04.242Z,13.40
2018-05-06T04:28:37.710Z,13.50
2018-05-06T04:29:11.180Z,13.50
2018-05-06T04:29:44.654Z,13.60
2018-05-06T04:30:17.894Z,13.60
2018-05-06T04:30:51.939Z,13.70
2018-05-06T04:31:25.419Z,13.70
2018-05-06T04:31:58.905Z,13.80
2018-05-06T04:32:32.152Z,13.90
2018-05-06T04:33:06.427Z,14.00
2018-05-06T04:33:39.918Z,14.00
2018-05-06T04:34:13.372Z,14.10
2018-05-06T04:34:46.848Z,14.20
2018-05-06T04:35:20.321Z,14.20
2018-05-06T04:35:53.803Z,14.20
2018-05-06T04:36:27.312Z,14.30
2018-05-06T04:37:00.798Z,14.30
2018-05-06T04:37:34.259Z,14.40
2018-05-06T04:38:07.754Z,14.40
2018-05-06T04:38:41.255Z,14.50
2018-05-06T04:39:14.737Z,14.60
2018-05-06T04:39:48.214Z,14.60
2018-05-06T04:40:21.756Z,14.60
2018-05-06T04:40:55.231Z,14.70
2018-05-06T04:41:28.703Z,14.80
2018-05-06T04:42:02.191Z,14.80
2018-05-06T04:42:35.670Z,14.80
2018-05-06T04:43:09.215Z,14.90
2018-05-06T04:43:42.727Z,15.00
2018-05-06T04:44:16.248Z,15.00
2018-05-06T04:44:50.637Z,15.10
2018-05-06T04:45:24.137Z,15.00
2018-05-06T04:45:57.600Z,15.10
2018-05-06T04:46:31.069Z,15.10
2018-05-06T04:47:04.546Z,15.20
2018-05-06T04:47:38.023Z,15.30
2018-05-06T04:48:11.513Z,15.30
2018-05-06T04:48:44.977Z,15.40
2018-05-06T04:49:18.454Z,15.50
2018-05-06T04:49:52.687Z,15.50
2018-05-06T04:50:26.152Z,15.50
2018-05-06T04:50:59.643Z,15.60
2018-05-06T04:51:33.128Z,15.60
2018-05-06T04:52:06.278Z,15.60
2018-05-06T04:52:40.508Z,15.80
2018-05-06T04:53:14.005Z,15.70
2018-05-06T04:53:47.479Z,15.90
2018-05-06T04:54:20.960Z,15.90
2018-05-06T04:54:54.449Z,15.90
2018-05-06T04:55:27.689Z,15.90
2018-05-06T04:56:01.142Z,16.00
2018-05-06T04:56:34.609Z,16.00
2018-05-06T04:57:08.074Z,16.00
2018-05-06T04:57:41.534Z,16.00
2018-05-06T04:58:15.814Z,16.10
2018-05-06T04:58:49.280Z,16.00
2018-05-06T04:59:22.754Z,16.10
2018-05-06T04:59:56.219Z,16.10
2018-05-06T05:00:29.711Z,16.10
2018-05-06T05:01:03.189Z,16.00
2018-05-06T05:01:36.672Z,16.00
2018-05-06T05:02:10.144Z,15.90
2018-05-06T05:02:44.379Z,15.90
2018-05-06T05:03:17.861Z,15.90
2018-05-06T05:03:51.328Z,15.90
2018-05-06T05:04:24.802Z,15.90
2018-05-06T05:04:59.042Z,15.80
2018-05-06T05:05:32.506Z,15.70
2018-05-06T05:06:05.987Z,15.70
2018-05-06T05:06:39.478Z,15.80
2018-05-06T05:07:12.634Z,15.70
2018-05-06T05:07:46.855Z,15.50
2018-05-06T05:08:20.359Z,15.50
2018-05-06T05:08:53.819Z,15.50
2018-05-06T05:09:27.348Z,15.50
2018-05-06T05:10:01.731Z,15.60
2018-05-06T05:10:35.197Z,15.50
2018-05-06T05:11:08.701Z,15.70
2018-05-06T05:11:42.167Z,15.70
2018-05-06T05:12:15.656Z,15.80
2018-05-06T05:12:49.126Z,15.90
2018-05-06T05:13:23.468Z,16.10
2018-05-06T05:13:56.945Z,16.00
2018-05-06T05:14:30.417Z,16.10
2018-05-06T05:15:03.578Z,16.10
2018-05-06T05:15:37.841Z,16.20
2018-05-06T05:16:11.300Z,16.20
2018-05-06T05:16:44.771Z,16.30
2018-05-06T05:17:18.234Z,16.40
2018-05-06T05:17:52.473Z,16.50
2018-05-06T05:18:25.971Z,16.50
2018-05-06T05:18:59.427Z,16.60
2018-05-06T05:19:32.914Z,16.70
2018-05-06T05:20:06.389Z,16.80
2018-05-06T05:20:39.625Z,16.80
2018-05-06T05:21:13.095Z,16.80
2018-05-06T05:21:46.762Z,16.90
2018-05-06T05:22:20.231Z,17.00
2018-05-06T05:22:53.730Z,17.00
2018-05-06T05:23:27.257Z,17.10
2018-05-06T05:24:00.787Z,17.20
2018-05-06T05:24:34.243Z,17.20
2018-05-06T05:25:07.700Z,17.30
2018-05-06T05:25:41.193Z,17.30
2018-05-06T05:26:14.664Z,17.30
2018-05-06T05:26:48.135Z,17.30
2018-05-06T05:27:21.609Z,17.30
2018-05-06T05:27:55.085Z,17.20
2018-05-06T05:28:28.588Z,17.10
2018-05-06T05:29:02.054Z,17.20
2018-05-06T05:29:35.551Z,17.10
2018-05-06T05:30:09.025Z,17.10
2018-05-06T05:30:42.509Z,17.10
2018-05-06T05:31:15.989Z,17.10
2018-05-06T05:31:49.458Z,17.10
2018-05-06T05:32:23.692Z,17.10
2018-05-06T05:32:57.165Z,17.10
2018-05-06T05:33:30.651Z,17.10
2018-05-06T05:34:04.139Z,17.10
2018-05-06T05:34:37.615Z,17.10
2018-05-06T05:35:11.102Z,17.10
2018-05-06T05:35:44.573Z,17.20
2018-05-06T05:36:18.916Z,17.20
2018-05-06T05:36:52.389Z,17.20
2018-05-06T05:37:25.865Z,17.20
2018-05-06T05:37:59.329Z,17.30
2018-05-06T05:38:33.581Z,17.30
2018-05-06T05:39:07.057Z,17.30
2018-05-06T05:39:40.523Z,17.30
2018-05-06T05:40:13.988Z,17.30
2018-05-06T05:40:48.227Z,17.30
2018-05-06T05:41:21.721Z,17.30
2018-05-06T05:41:55.215Z,17.20
2018-05-06T05:42:28.693Z,17.30
2018-05-06T05:43:02.163Z,17.20
2018-05-06T05:43:35.684Z,17.20
2018-05-06T05:44:09.155Z,17.20
2018-05-06T05:44:42.643Z,17.30
2018-05-06T05:45:16.105Z,17.20
2018-05-06T05:45:49.345Z,17.20
2018-05-06T05:46:23.585Z,17.10
2018-05-06T05:46:57.059Z,17.10
2018-05-06T05:47:30.547Z,17.20
2018-05-06T05:48:04.015Z,17.30
2018-05-06T05:48:37.631Z,17.30
2018-05-06T05:49:11.107Z,17.30
2018-05-06T05:49:44.595Z,17.20
2018-05-06T05:50:18.075Z,17.10
2018-05-06T05:50:51.541Z,17.10
2018-05-06T05:51:25.022Z,17.00
2018-05-06T05:51:59.283Z,16.90
2018-05-06T05:52:32.810Z,16.90
2018-05-06T05:53:06.281Z,16.90
2018-05-06T05:53:40.546Z,17.00
2018-05-06T05:54:14.033Z,17.00
2018-05-06T05:54:47.506Z,17.10
2018-05-06T05:55:21.042Z,17.00
2018-05-06T05:55:55.311Z,17.10
2018-05-06T05:56:28.789Z,17.10
2018-05-06T05:57:02.274Z,17.00
2018-05-06T05:57:36.529Z,16.90
2018-05-06T05:58:10.777Z,16.80
2018-05-06T05:58:44.275Z,16.80
2018-05-06T05:59:17.753Z,16.70
2018-05-06T05:59:51.245Z,16.60
2018-05-06T06:00:24.707Z,16.50
2018-05-06T06:00:58.165Z,16.50
2018-05-06T06:01:32.468Z,16.40
2018-05-06T06:02:06.058Z,16.40
2018-05-06T06:02:39.533Z,16.30
2018-05-06T06:03:13.036Z,16.30
2018-05-06T06:03:46.539Z,16.40
2018-05-06T06:04:19.985Z,16.30
2018-05-06T06:04:54.214Z,16.30
2018-05-06T06:05:27.679Z,16.30
2018-05-06T06:06:01.909Z,16.20
2018-05-06T06:06:35.387Z,16.20
2018-05-06T06:07:08.870Z,16.20
2018-05-06T06:07:42.089Z,16.20
2018-05-06T06:08:15.357Z,16.20
2018-05-06T06:08:48.863Z,16.20
2018-05-06T06:09:22.341Z,16.10
2018-05-06T06:09:55.481Z,16.10
2018-05-06T06:10:28.937Z,16.10
2018-05-06T06:11:03.189Z,16.00
2018-05-06T06:11:36.647Z,16.00
2018-05-06T06:12:10.109Z,15.90
2018-05-06T06:12:44.356Z,15.90
2018-05-06T06:13:17.847Z,15.90
2018-05-06T06:13:51.375Z,15.80
2018-05-06T06:14:25.611Z,15.70
2018-05-06T06:14:59.081Z,15.70
2018-05-06T06:15:33.413Z,15.60
2018-05-06T06:16:06.973Z,15.60
2018-05-06T06:16:41.213Z,15.50
2018-05-06T06:17:14.679Z,15.50
2018-05-06T06:17:48.146Z,15.40
2018-05-06T06:18:22.379Z,15.30
2018-05-06T06:18:55.859Z,15.30
2018-05-06T06:19:29.357Z,15.20
2018-05-06T06:20:02.844Z,15.20
2018-05-06T06:20:36.335Z,15.10
2018-05-06T06:21:09.813Z,15.00
2018-05-06T06:21:43.281Z,15.00
2018-05-06T06:22:16.759Z,14.90
2018-05-06T06:22:50.241Z,14.90
2018-05-06T06:23:23.730Z,14.90
2018-05-06T06:23:57.213Z,14.90
2018-05-06T06:24:30.714Z,14.80
2018-05-06T06:25:04.031Z,14.80
2018-05-06T06:25:37.526Z,14.80
2018-05-06T06:26:11.064Z,14.70
2018-05-06T06:26:44.659Z,14.70
2018-05-06T06:27:18.146Z,14.70
2018-05-06T06:27:51.606Z,14.70
2018-05-06T06:28:25.077Z,14.60
2018-05-06T06:28:59.342Z,14.60
2018-05-06T06:29:32.848Z,14.60
2018-05-06T06:30:07.105Z,14.60
2018-05-06T06:30:40.615Z,14.60
2018-05-06T06:31:14.071Z,14.60
2018-05-06T06:31:47.214Z,14.50
2018-05-06T06:32:21.431Z,14.50
2018-05-06T06:32:54.910Z,14.50
2018-05-06T06:33:29.103Z,14.50
2018-05-06T06:34:03.372Z,14.50
2018-05-06T06:34:36.851Z,14.50
2018-05-06T06:35:10.357Z,14.50
2018-05-06T06:35:43.820Z,14.50
2018-05-06T06:36:17.286Z,14.50
2018-05-06T06:36:50.771Z,14.50
2018-05-06T06:37:24.231Z,14.50
2018-05-06T06:37:57.734Z,14.50
2018-05-06T06:38:31.222Z,14.60
2018-05-06T06:39:04.457Z,14.60
2018-05-06T06:39:38.720Z,14.60
2018-05-06T06:40:12.212Z,14.60
2018-05-06T06:40:45.685Z,14.60
2018-05-06T06:41:19.157Z,14.60
2018-05-06T06:41:52.646Z,14.60
2018-05-06T06:42:26.115Z,14.60
2018-05-06T06:42:59.609Z,14.60
2018-05-06T06:43:33.200Z,14.60
2018-05-06T06:44:06.694Z,14.60
2018-05-06T06:44:40.202Z,14.60
2018-05-06T06:45:15.180Z,14.60
2018-05-06T06:45:48.675Z,14.70
2018-05-06T06:46:21.807Z,14.70
2018-05-06T06:46:56.037Z,14.70
2018-05-06T06:47:29.499Z,14.70
2018-05-06T06:48:03.729Z,14.70
2018-05-06T06:48:37.227Z,14.70
2018-05-06T06:49:10.726Z,14.70
2018-05-06T06:49:44.207Z,14.70
2018-05-06T06:50:17.665Z,14.80
2018-05-06T06:50:51.116Z,14.80
2018-05-06T06:51:25.380Z,14.80
2018-05-06T06:51:58.855Z,14.80
2018-05-06T06:52:32.321Z,14.80
2018-05-06T06:53:05.779Z,14.80
2018-05-06T06:53:40.020Z,14.80
2018-05-06T06:54:13.527Z,14.90
2018-05-06T06:54:46.998Z,14.90
2018-05-06T06:55:20.571Z,14.90
2018-05-06T06:55:53.846Z,14.90
2018-05-06T06:56:27.091Z,14.90
2018-05-06T06:57:01.109Z,15.00
2018-05-06T06:57:35.337Z,15.00
2018-05-06T06:58:08.574Z,15.00
2018-05-06T06:58:42.823Z,15.00
2018-05-06T06:59:16.336Z,15.00
2018-05-06T06:59:49.823Z,15.00
2018-05-06T07:00:23.383Z,15.10
2018-05-06T07:00:56.863Z,15.10
2018-05-06T07:01:30.341Z,15.10
2018-05-06T07:02:03.806Z,15.10
2018-05-06T07:02:38.039Z,15.10
2018-05-06T07:03:11.508Z,15.10
2018-05-06T07:03:44.980Z,15.10
2018-05-06T07:04:18.496Z,15.20
2018-05-06T07:04:51.973Z,15.20
2018-05-06T07:05:25.434Z,15.20
2018-05-06T07:05:59.727Z,15.20
2018-05-06T07:06:33.353Z,15.20
2018-05-06T07:07:06.889Z,15.20
2018-05-06T07:07:40.358Z,15.20
2018-05-06T07:08:13.829Z,15.20
2018-05-06T07:08:47.293Z,15.30
2018-05-06T07:09:20.786Z,15.30
2018-05-06T07:09:54.257Z,15.30
2018-05-06T07:10:27.767Z,15.30
2018-05-06T07:11:02.161Z,15.40
2018-05-06T07:11:35.409Z,15.40
2018-05-06T07:12:09.467Z,15.40
2018-05-06T07:12:42.941Z,15.40
2018-05-06T07:13:16.407Z,15.40
2018-05-06T07:13:49.886Z,15.50
2018-05-06T07:14:23.360Z,15.50
2018-05-06T07:14:56.493Z,15.50
2018-05-06T07:15:29.950Z,15.50
2018-05-06T07:16:03.464Z,15.50
2018-05-06T07:16:37.727Z,15.50
2018-05-06T07:17:11.209Z,15.50
2018-05-06T07:17:44.713Z,15.50
2018-05-06T07:18:18.195Z,15.50
2018-05-06T07:18:53.733Z,15.60
2018-05-06T07:19:29.769Z,15.60
2018-05-06T07:20:03.237Z,15.60
2018-05-06T07:20:37.137Z,15.60
2018-05-06T07:21:10.283Z,15.60
2018-05-06T07:21:44.720Z,15.60
2018-05-06T07:22:18.201Z,15.60
2018-05-06T07:22:51.687Z,15.60
2018-05-06T07:23:25.169Z,15.60
2018-05-06T07:23:58.752Z,15.60
2018-05-06T07:24:33.043Z,15.70